sensor_id;sensor_type;location;lat;lon;timestamp;pressure;altitude;pressure_sealevel;temperature;humidity
39681;BME280;26327;42.550;23.120;2023-02-13T05:24:10;94508.22;;;-0.90;100.00
39681;BME280;26327;42.550;23.120;2023-02-13T05:26:36;94438.59;;;-1.28;100.00
39681;BME280;26327;42.550;23.120;2023-02-13T05:29:01;94428.81;;;-1.37;100.00
39681;BME280;26327;42.550;23.120;2023-02-13T05:31:48;94518.97;;;-1.02;100.00
39681;BME280;26327;42.550;23.120;2023-02-13T05:34:14;94462.78;;;-1.55;100.00
39681;BME280;26327;42.550;23.120;2023-02-13T05:36:40;94493.69;;;-1.44;100.00
39681;BME280;26327;42.550;23.120;2023-02-13T05:39:05;94523.25;;;-1.03;100.00
39681;BME280;26327;42.550;23.120;2023-02-13T05:41:30;94464.28;;;-1.51;100.00
39681;BME280;26327;42.550;23.120;2023-02-13T05:43:56;94447.91;;;-1.65;100.00
39681;BME280;26327;42.550;23.120;2023-02-13T05:46:21;94542.91;;;-1.05;100.00
39681;BME280;26327;42.550;23.120;2023-02-13T05:48:47;94461.47;;;-1.45;100.00
39681;BME280;26327;42.550;23.120;2023-02-13T05:51:12;94539.91;;;-0.94;100.00
39681;BME280;26327;42.550;23.120;2023-02-13T05:53:38;94543.91;;;-0.71;100.00
39681;BME280;26327;42.550;23.120;2023-02-13T05:56:04;94464.19;;;-1.12;100.00
39681;BME280;26327;42.550;23.120;2023-02-13T05:58:30;94547.09;;;-0.66;100.00
39681;BME280;26327;42.550;23.120;2023-02-13T06:00:57;94548.16;;;-0.53;100.00
39681;BME280;26327;42.550;23.120;2023-02-13T06:03:27;94556.63;;;-0.52;100.00
39681;BME280;26327;42.550;23.120;2023-02-13T06:05:53;94553.25;;;-0.53;100.00
39681;BME280;26327;42.550;23.120;2023-02-13T06:08:19;94557.44;;;-0.33;100.00
39681;BME280;26327;42.550;23.120;2023-02-13T06:10:48;94552.69;;;-0.41;100.00
39681;BME280;26327;42.550;23.120;2023-02-13T06:13:14;94476.97;;;-0.76;100.00
39681;BME280;26327;42.550;23.120;2023-02-13T06:15:40;94477.19;;;-0.81;100.00
39681;BME280;26327;42.550;23.120;2023-02-13T06:18:05;94477.94;;;-1.52;100.00
39681;BME280;26327;42.550;23.120;2023-02-13T06:20:31;94557.31;;;-0.85;100.00
39681;BME280;26327;42.550;23.120;2023-02-13T06:22:56;94562.13;;;-0.98;100.00
39681;BME280;26327;42.550;23.120;2023-02-13T06:25:22;94537.88;;;-0.87;100.00
39681;BME280;26327;42.550;23.120;2023-02-13T06:27:47;94568.72;;;-0.56;100.00
39681;BME280;26327;42.550;23.120;2023-02-13T06:30:14;94546.91;;;-0.80;100.00
39681;BME280;26327;42.550;23.120;2023-02-13T06:32:39;94544.53;;;-0.49;100.00
39681;BME280;26327;42.550;23.120;2023-02-13T06:35:05;94552.41;;;-0.17;100.00
39681;BME280;26327;42.550;23.120;2023-02-13T06:37:31;94555.41;;;-0.44;100.00
39681;BME280;26327;42.550;23.120;2023-02-13T06:39:57;94582.25;;;-0.54;100.00
39681;BME280;26327;42.550;23.120;2023-02-13T06:42:22;94492.25;;;-1.12;100.00
39681;BME280;26327;42.550;23.120;2023-02-13T06:44:48;94515.31;;;-0.78;100.00
39681;BME280;26327;42.550;23.120;2023-02-13T06:47:13;94573.75;;;-0.54;100.00
39681;BME280;26327;42.550;23.120;2023-02-13T06:49:38;94459.63;;;-0.70;100.00
39681;BME280;26327;42.550;23.120;2023-02-13T06:52:04;94475.25;;;-1.31;100.00
39681;BME280;26327;42.550;23.120;2023-02-13T06:54:29;94490.22;;;-0.87;100.00
39681;BME280;26327;42.550;23.120;2023-02-13T06:56:54;94567.19;;;-0.41;100.00
39681;BME280;26327;42.550;23.120;2023-02-13T06:59:20;94520.41;;;-0.42;100.00
39681;BME280;26327;42.550;23.120;2023-02-13T07:01:45;94511.84;;;-0.77;100.00
39681;BME280;26327;42.550;23.120;2023-02-13T07:04:11;94542.03;;;0.03;100.00
39681;BME280;26327;42.550;23.120;2023-02-13T07:06:36;94561.88;;;0.15;100.00
39681;BME280;26327;42.550;23.120;2023-02-13T07:09:02;94536.31;;;0.15;100.00
39681;BME280;26327;42.550;23.120;2023-02-13T07:11:28;94475.81;;;-0.02;100.00
39681;BME280;26327;42.550;23.120;2023-02-13T07:13:53;94563.09;;;0.58;100.00
39681;BME280;26327;42.550;23.120;2023-02-13T07:16:19;94501.19;;;0.19;100.00
39681;BME280;26327;42.550;23.120;2023-02-13T07:18:44;94481.41;;;0.22;100.00
39681;BME280;26327;42.550;23.120;2023-02-13T07:21:10;94558.59;;;0.79;100.00
39681;BME280;26327;42.550;23.120;2023-02-13T07:23:35;94455.97;;;0.37;98.85
39681;BME280;26327;42.550;23.120;2023-02-13T07:26:01;94548.94;;;0.84;98.22
39681;BME280;26327;42.550;23.120;2023-02-13T07:28:27;94507.53;;;0.45;98.38
39681;BME280;26327;42.550;23.120;2023-02-13T07:30:53;94572.34;;;0.44;98.40
39681;BME280;26327;42.550;23.120;2023-02-13T07:33:19;94578.94;;;0.65;99.67
39681;BME280;26327;42.550;23.120;2023-02-13T07:35:46;94461.31;;;0.32;97.19
39681;BME280;26327;42.550;23.120;2023-02-13T07:38:11;94514.84;;;0.68;96.65
39681;BME280;26327;42.550;23.120;2023-02-13T07:40:36;94488.69;;;0.63;96.85
39681;BME280;26327;42.550;23.120;2023-02-13T07:43:02;94558.94;;;0.23;98.43
39681;BME280;26327;42.550;23.120;2023-02-13T07:45:27;94557.63;;;0.31;100.00
39681;BME280;26327;42.550;23.120;2023-02-13T07:47:56;94501.31;;;0.00;100.00
39681;BME280;26327;42.550;23.120;2023-02-13T07:50:22;94563.38;;;0.85;98.99
39681;BME280;26327;42.550;23.120;2023-02-13T07:52:59;94571.69;;;1.06;97.86
39681;BME280;26327;42.550;23.120;2023-02-13T07:55:26;94466.91;;;0.72;96.35
39681;BME280;26327;42.550;23.120;2023-02-13T07:57:51;94521.47;;;1.04;95.97
39681;BME280;26327;42.550;23.120;2023-02-13T08:00:17;94568.59;;;1.31;95.59
39681;BME280;26327;42.550;23.120;2023-02-13T08:02:44;94422.59;;;0.55;94.91
39681;BME280;26327;42.550;23.120;2023-02-13T08:05:09;94430.91;;;0.59;93.92
39681;BME280;26327;42.550;23.120;2023-02-13T08:07:35;94479.75;;;0.86;94.44
39681;BME280;26327;42.550;23.120;2023-02-13T08:10:01;94506.53;;;1.12;94.03
39681;BME280;26327;42.550;23.120;2023-02-13T08:12:45;94552.25;;;1.34;93.23
39681;BME280;26327;42.550;23.120;2023-02-13T08:15:12;94573.22;;;1.40;93.24
39681;BME280;26327;42.550;23.120;2023-02-13T08:17:38;94503.44;;;0.89;94.73
39681;BME280;26327;42.550;23.120;2023-02-13T08:20:05;94573.84;;;1.45;94.35
39681;BME280;26327;42.550;23.120;2023-02-13T08:22:37;94560.84;;;1.48;94.81
39681;BME280;26327;42.550;23.120;2023-02-13T08:25:04;94540.72;;;1.42;93.98
39681;BME280;26327;42.550;23.120;2023-02-13T08:27:31;94483.41;;;1.13;92.89
39681;BME280;26327;42.550;23.120;2023-02-13T08:29:57;94505.94;;;1.22;93.42
39681;BME280;26327;42.550;23.120;2023-02-13T08:32:23;94567.22;;;1.57;92.50
39681;BME280;26327;42.550;23.120;2023-02-13T08:34:49;94537.13;;;1.61;92.50
39681;BME280;26327;42.550;23.120;2023-02-13T08:37:14;94550.22;;;1.70;92.31
39681;BME280;26327;42.550;23.120;2023-02-13T08:39:40;94471.44;;;0.98;93.46
39681;BME280;26327;42.550;23.120;2023-02-13T08:42:05;94511.31;;;1.02;92.38
39681;BME280;26327;42.550;23.120;2023-02-13T08:44:31;94565.94;;;1.64;93.82
39681;BME280;26327;42.550;23.120;2023-02-13T08:46:56;94561.41;;;1.69;93.01
39681;BME280;26327;42.550;23.120;2023-02-13T08:49:22;94572.88;;;1.78;92.17
39681;BME280;26327;42.550;23.120;2023-02-13T08:51:48;94481.03;;;1.40;91.35
39681;BME280;26327;42.550;23.120;2023-02-13T08:54:14;94487.97;;;1.54;90.39
39681;BME280;26327;42.550;23.120;2023-02-13T08:56:41;94484.88;;;1.63;90.31
39681;BME280;26327;42.550;23.120;2023-02-13T08:59:06;94491.09;;;1.59;90.55
39681;BME280;26327;42.550;23.120;2023-02-13T09:01:31;94486.16;;;1.40;91.34
39681;BME280;26327;42.550;23.120;2023-02-13T09:03:57;94575.19;;;2.12;90.09
39681;BME280;26327;42.550;23.120;2023-02-13T09:06:22;94504.41;;;1.80;90.81
39681;BME280;26327;42.550;23.120;2023-02-13T09:08:50;94568.75;;;2.05;91.53
39681;BME280;26327;42.550;23.120;2023-02-13T09:11:15;94492.81;;;0.66;93.76
39681;BME280;26327;42.550;23.120;2023-02-13T09:13:41;94561.75;;;1.32;94.04
39681;BME280;26327;42.550;23.120;2023-02-13T09:16:06;94568.09;;;1.40;94.96
39681;BME280;26327;42.550;23.120;2023-02-13T09:18:33;94561.53;;;1.82;93.29
39681;BME280;26327;42.550;23.120;2023-02-13T09:21:01;94490.25;;;1.58;92.02
39681;BME280;26327;42.550;23.120;2023-02-13T09:23:30;94569.22;;;2.42;89.87
39681;BME280;26327;42.550;23.120;2023-02-13T09:26:01;94556.97;;;2.17;91.09
39681;BME280;26327;42.550;23.120;2023-02-13T09:28:28;94575.28;;;2.11;89.94
39681;BME280;26327;42.550;23.120;2023-02-13T09:30:54;94483.59;;;1.40;92.16
39681;BME280;26327;42.550;23.120;2023-02-13T09:33:20;94567.22;;;1.57;91.42
39681;BME280;26327;42.550;23.120;2023-02-13T09:35:45;94545.19;;;1.69;93.93
39681;BME280;26327;42.550;23.120;2023-02-13T09:38:11;94476.81;;;1.99;91.28
39681;BME280;26327;42.550;23.120;2023-02-13T09:43:30;94554.75;;;2.69;88.62
39681;BME280;26327;42.550;23.120;2023-02-13T09:46:06;94531.81;;;2.80;87.83
39681;BME280;26327;42.550;23.120;2023-02-13T09:48:36;94465.69;;;2.43;87.43
39681;BME280;26327;42.550;23.120;2023-02-13T09:51:03;94510.13;;;2.86;86.51
39681;BME280;26327;42.550;23.120;2023-02-13T09:53:28;94402.81;;;2.50;84.31
39681;BME280;26327;42.550;23.120;2023-02-13T09:56:12;94527.19;;;3.82;81.68
39681;BME280;26327;42.550;23.120;2023-02-13T09:58:57;94542.44;;;3.98;80.59
39681;BME280;26327;42.550;23.120;2023-02-13T10:01:27;94404.16;;;3.24;78.91
39681;BME280;26327;42.550;23.120;2023-02-13T10:12:21;94519.41;;;7.10;65.31
39681;BME280;26327;42.550;23.120;2023-02-13T10:17:44;94516.16;;;4.83;70.00
39681;BME280;26327;42.550;23.120;2023-02-13T10:22:46;94496.78;;;10.50;54.00
39681;BME280;26327;42.550;23.120;2023-02-13T10:25:27;94429.91;;;11.62;45.77
39681;BME280;26327;42.550;23.120;2023-02-13T10:27:59;94413.50;;;13.01;41.79
39681;BME280;26327;42.550;23.120;2023-02-13T10:30:34;94451.22;;;14.80;38.06
39681;BME280;26327;42.550;23.120;2023-02-13T10:38:20;94463.44;;;9.19;47.78
39681;BME280;26327;42.550;23.120;2023-02-13T10:41:03;94473.84;;;11.20;43.33
39681;BME280;26327;42.550;23.120;2023-02-13T10:43:37;94448.06;;;11.72;42.29
39681;BME280;26327;42.550;23.120;2023-02-13T10:46:16;94452.78;;;14.97;36.68
39681;BME280;26327;42.550;23.120;2023-02-13T10:51:41;94408.88;;;13.87;34.67
39681;BME280;26327;42.550;23.120;2023-02-13T10:59:57;94435.06;;;16.17;32.66
39681;BME280;26327;42.550;23.120;2023-02-13T11:02:29;94403.84;;;17.12;30.39
39681;BME280;26327;42.550;23.120;2023-02-13T11:05:18;94427.28;;;14.99;32.95
39681;BME280;26327;42.550;23.120;2023-02-13T11:07:41;94428.03;;;17.07;30.71
39681;BME280;26327;42.550;23.120;2023-02-13T11:10:20;94362.06;;;17.82;28.44
39681;BME280;26327;42.550;23.120;2023-02-13T11:12:46;94408.28;;;18.83;27.55
39681;BME280;26327;42.550;23.120;2023-02-13T11:15:22;94411.25;;;16.93;29.83
39681;BME280;26327;42.550;23.120;2023-02-13T11:17:50;94374.25;;;18.33;27.91
39681;BME280;26327;42.550;23.120;2023-02-13T11:20:37;94412.69;;;15.05;31.90
39681;BME280;26327;42.550;23.120;2023-02-13T11:25:38;94399.56;;;13.76;34.92
39681;BME280;26327;42.550;23.120;2023-02-13T11:28:09;94403.81;;;14.67;33.39
39681;BME280;26327;42.550;23.120;2023-02-13T11:30:36;94336.53;;;17.25;29.30
39681;BME280;26327;42.550;23.120;2023-02-13T11:35:33;94320.44;;;18.98;26.24
39681;BME280;26327;42.550;23.120;2023-02-13T11:40:40;94367.44;;;15.58;31.26
39681;BME280;26327;42.550;23.120;2023-02-13T11:45:44;94331.31;;;15.46;30.82
39681;BME280;26327;42.550;23.120;2023-02-13T11:48:21;94369.22;;;15.35;31.84
39681;BME280;26327;42.550;23.120;2023-02-13T11:50:52;94357.75;;;14.33;32.99
39681;BME280;26327;42.550;23.120;2023-02-13T11:53:21;94368.34;;;13.67;33.72
39681;BME280;26327;42.550;23.120;2023-02-13T11:56:11;94363.13;;;13.67;33.76
39681;BME280;26327;42.550;23.120;2023-02-13T11:58:37;94353.63;;;13.33;34.83
39681;BME280;26327;42.550;23.120;2023-02-13T12:06:21;94219.06;;;7.98;44.75
39681;BME280;26327;42.550;23.120;2023-02-13T12:08:48;94350.78;;;7.17;50.35
39681;BME280;26327;42.550;23.120;2023-02-13T12:11:24;94335.25;;;7.70;51.49
39681;BME280;26327;42.550;23.120;2023-02-13T12:13:52;94247.78;;;6.38;53.42
39681;BME280;26327;42.550;23.120;2023-02-13T12:16:33;94341.19;;;6.97;53.29
39681;BME280;26327;42.550;23.120;2023-02-13T12:19:04;94265.25;;;7.20;50.69
39681;BME280;26327;42.550;23.120;2023-02-13T12:24:45;94309.59;;;7.57;51.30
39681;BME280;26327;42.550;23.120;2023-02-13T12:32:43;94301.28;;;6.90;49.00
39681;BME280;26327;42.550;23.120;2023-02-13T12:54:49;94288.81;;;7.48;47.53
39681;BME280;26327;42.550;23.120;2023-02-13T12:58:01;94290.69;;;7.87;47.90
39681;BME280;26327;42.550;23.120;2023-02-13T13:00:43;94286.75;;;7.93;46.91
39681;BME280;26327;42.550;23.120;2023-02-13T13:14:09;94240.38;;;7.71;48.42
39681;BME280;26327;42.550;23.120;2023-02-13T13:25:21;94253.16;;;8.03;49.12
39681;BME280;26327;42.550;23.120;2023-02-13T13:27:58;94262.06;;;7.79;48.35
39681;BME280;26327;42.550;23.120;2023-02-13T13:30:31;94252.38;;;7.81;48.57
39681;BME280;26327;42.550;23.120;2023-02-13T13:33:02;94187.88;;;7.29;49.71
39681;BME280;26327;42.550;23.120;2023-02-13T13:35:29;94235.00;;;7.63;49.25
39681;BME280;26327;42.550;23.120;2023-02-13T13:43:20;94270.91;;;7.35;51.49
39681;BME280;26327;42.550;23.120;2023-02-13T13:51:15;94244.38;;;7.12;51.56
39681;BME280;26327;42.550;23.120;2023-02-13T13:56:24;94248.94;;;7.09;51.39
39681;BME280;26327;42.550;23.120;2023-02-13T13:58:50;94250.41;;;6.70;52.13
39681;BME280;26327;42.550;23.120;2023-02-13T14:04:36;94240.72;;;6.51;51.41
39681;BME280;26327;42.550;23.120;2023-02-13T14:09:44;94244.06;;;6.74;50.05
39681;BME280;26327;42.550;23.120;2023-02-13T14:14:55;94188.00;;;6.53;49.87
39681;BME280;26327;42.550;23.120;2023-02-13T14:17:50;94251.13;;;6.60;51.37
39681;BME280;26327;42.550;23.120;2023-02-13T14:28:54;94222.13;;;6.68;50.19
39681;BME280;26327;42.550;23.120;2023-02-13T14:31:32;94173.19;;;6.35;51.26
39681;BME280;26327;42.550;23.120;2023-02-13T14:36:35;94141.25;;;5.81;52.66
39681;BME280;26327;42.550;23.120;2023-02-13T14:39:25;94217.84;;;6.46;52.64
39681;BME280;26327;42.550;23.120;2023-02-13T14:44:22;94227.06;;;6.17;55.87
39681;BME280;26327;42.550;23.120;2023-02-13T14:46:49;94221.44;;;6.23;56.36
39681;BME280;26327;42.550;23.120;2023-02-13T14:49:22;94215.47;;;6.00;57.06
39681;BME280;26327;42.550;23.120;2023-02-13T14:51:50;94225.44;;;6.16;56.29
39681;BME280;26327;42.550;23.120;2023-02-13T14:56:53;94222.59;;;6.08;57.08
39681;BME280;26327;42.550;23.120;2023-02-13T14:59:27;94221.22;;;6.04;57.51
39681;BME280;26327;42.550;23.120;2023-02-13T15:02:22;94213.56;;;6.13;56.58
39681;BME280;26327;42.550;23.120;2023-02-13T15:04:55;94212.28;;;6.08;56.70
39681;BME280;26327;42.550;23.120;2023-02-13T15:07:34;94227.53;;;6.11;57.36
39681;BME280;26327;42.550;23.120;2023-02-13T15:10:05;94217.22;;;5.99;57.67
39681;BME280;26327;42.550;23.120;2023-02-13T15:12:35;94216.03;;;6.04;58.28
39681;BME280;26327;42.550;23.120;2023-02-13T15:15:21;94201.66;;;5.90;58.62
39681;BME280;26327;42.550;23.120;2023-02-13T15:17:47;94195.41;;;5.59;59.62
39681;BME280;26327;42.550;23.120;2023-02-13T15:22:39;94221.66;;;5.53;61.04
39681;BME280;26327;42.550;23.120;2023-02-13T15:25:21;94150.16;;;4.99;60.23
39681;BME280;26327;42.550;23.120;2023-02-13T15:27:51;94064.03;;;4.34;62.21
39681;BME280;26327;42.550;23.120;2023-02-13T15:33:46;94156.97;;;4.65;64.33
39681;BME280;26327;42.550;23.120;2023-02-13T15:36:20;94248.16;;;4.97;64.40
39681;BME280;26327;42.550;23.120;2023-02-13T15:38:47;94248.19;;;4.73;64.97
39681;BME280;26327;42.550;23.120;2023-02-13T15:41:17;94212.50;;;4.45;64.96
39681;BME280;26327;42.550;23.120;2023-02-13T15:43:47;94215.50;;;4.39;66.05
39681;BME280;26327;42.550;23.120;2023-02-13T15:48:55;94172.63;;;3.79;67.54
39681;BME280;26327;42.550;23.120;2023-02-13T15:51:27;94139.19;;;3.42;69.78
39681;BME280;26327;42.550;23.120;2023-02-13T15:53:57;94252.47;;;4.01;70.39
39681;BME280;26327;42.550;23.120;2023-02-13T15:56:23;94243.72;;;4.04;69.57
39681;BME280;26327;42.550;23.120;2023-02-13T15:58:49;94140.84;;;3.31;69.02
39681;BME280;26327;42.550;23.120;2023-02-13T16:01:16;94243.34;;;3.72;71.76
39681;BME280;26327;42.550;23.120;2023-02-13T16:03:43;94244.59;;;3.66;70.91
39681;BME280;26327;42.550;23.120;2023-02-13T16:06:18;94180.81;;;3.09;70.67
39681;BME280;26327;42.550;23.120;2023-02-13T16:08:51;94242.13;;;3.27;70.68
39681;BME280;26327;42.550;23.120;2023-02-13T16:11:26;94159.22;;;2.61;72.39
39681;BME280;26327;42.550;23.120;2023-02-13T16:14:17;94263.41;;;3.03;73.59
39681;BME280;26327;42.550;23.120;2023-02-13T16:17:00;94231.91;;;2.74;73.77
39681;BME280;26327;42.550;23.120;2023-02-13T16:22:46;94266.47;;;2.56;76.53
39681;BME280;26327;42.550;23.120;2023-02-13T16:27:50;94261.81;;;2.21;79.81
39681;BME280;26327;42.550;23.120;2023-02-13T16:30:38;94263.69;;;2.32;80.61
39681;BME280;26327;42.550;23.120;2023-02-13T16:35:46;94277.56;;;2.15;79.96
39681;BME280;26327;42.550;23.120;2023-02-13T16:40:51;94259.63;;;1.60;82.93
39681;BME280;26327;42.550;23.120;2023-02-13T16:46:40;94191.84;;;1.09;83.68
39681;BME280;26327;42.550;23.120;2023-02-13T16:51:44;94297.50;;;1.55;83.38
39681;BME280;26327;42.550;23.120;2023-02-13T16:56:52;94215.41;;;0.85;84.31
39681;BME280;26327;42.550;23.120;2023-02-13T16:59:31;94296.72;;;1.10;85.39
39681;BME280;26327;42.550;23.120;2023-02-13T17:02:12;94297.28;;;0.85;89.32
39681;BME280;26327;42.550;23.120;2023-02-13T17:04:38;94130.34;;;-0.22;89.41
39681;BME280;26327;42.550;23.120;2023-02-13T17:07:14;94282.44;;;0.76;90.45
39681;BME280;26327;42.550;23.120;2023-02-13T17:09:40;94195.56;;;-0.01;90.30
39681;BME280;26327;42.550;23.120;2023-02-13T17:12:12;94191.84;;;0.20;89.50
39681;BME280;26327;42.550;23.120;2023-02-13T17:14:39;94305.91;;;0.99;88.03
39681;BME280;26327;42.550;23.120;2023-02-13T17:17:13;94246.31;;;0.37;89.49
39681;BME280;26327;42.550;23.120;2023-02-13T17:19:38;94207.84;;;0.24;89.24
39681;BME280;26327;42.550;23.120;2023-02-13T17:22:04;94213.94;;;0.21;88.29
39681;BME280;26327;42.550;23.120;2023-02-13T17:24:30;94299.09;;;0.83;88.47
39681;BME280;26327;42.550;23.120;2023-02-13T17:26:55;94218.44;;;0.48;87.36
39681;BME280;26327;42.550;23.120;2023-02-13T17:29:21;94297.81;;;0.76;88.45
39681;BME280;26327;42.550;23.120;2023-02-13T17:31:48;94298.78;;;0.74;88.32
39681;BME280;26327;42.550;23.120;2023-02-13T17:34:18;94267.97;;;0.61;87.15
39681;BME280;26327;42.550;23.120;2023-02-13T17:36:43;94203.50;;;0.10;87.19
39681;BME280;26327;42.550;23.120;2023-02-13T17:39:09;94202.19;;;0.03;87.79
39681;BME280;26327;42.550;23.120;2023-02-13T17:41:34;94296.53;;;0.53;88.06
39681;BME280;26327;42.550;23.120;2023-02-13T17:44:02;94279.75;;;0.18;89.72
39681;BME280;26327;42.550;23.120;2023-02-13T17:46:28;94284.03;;;0.17;89.62
39681;BME280;26327;42.550;23.120;2023-02-13T17:48:53;94212.63;;;-0.49;91.59
39681;BME280;26327;42.550;23.120;2023-02-13T17:51:18;94297.44;;;-0.26;93.74
39681;BME280;26327;42.550;23.120;2023-02-13T17:53:44;94290.03;;;-0.15;92.27
39681;BME280;26327;42.550;23.120;2023-02-13T17:56:10;94237.38;;;-0.34;91.99
39681;BME280;26327;42.550;23.120;2023-02-13T17:58:36;94177.72;;;-0.80;90.43
39681;BME280;26327;42.550;23.120;2023-02-13T18:01:01;94300.50;;;-0.20;91.62
39681;BME280;26327;42.550;23.120;2023-02-13T18:03:27;94212.31;;;-0.58;90.94
39681;BME280;26327;42.550;23.120;2023-02-13T18:05:52;94279.97;;;-0.18;90.47
39681;BME280;26327;42.550;23.120;2023-02-13T18:08:17;94108.19;;;-1.49;91.19
39681;BME280;26327;42.550;23.120;2023-02-13T18:10:44;94295.53;;;-0.39;93.17
39681;BME280;26327;42.550;23.120;2023-02-13T18:13:09;94287.00;;;-0.55;93.26
39681;BME280;26327;42.550;23.120;2023-02-13T18:15:40;94287.13;;;-0.41;93.29
39681;BME280;26327;42.550;23.120;2023-02-13T18:18:06;94302.00;;;-0.49;92.60
39681;BME280;26327;42.550;23.120;2023-02-13T18:20:31;94299.81;;;-0.39;92.18
39681;BME280;26327;42.550;23.120;2023-02-13T18:22:57;94297.44;;;-0.26;90.91
39681;BME280;26327;42.550;23.120;2023-02-13T18:25:22;94260.78;;;-0.74;91.58
39681;BME280;26327;42.550;23.120;2023-02-13T18:27:48;94282.03;;;-0.41;91.12
39681;BME280;26327;42.550;23.120;2023-02-13T18:30:16;94275.94;;;-0.71;92.33
39681;BME280;26327;42.550;23.120;2023-02-13T18:32:42;94290.16;;;-1.00;93.26
39681;BME280;26327;42.550;23.120;2023-02-13T18:35:08;94291.13;;;-0.85;93.90
39681;BME280;26327;42.550;23.120;2023-02-13T18:37:34;94201.91;;;-1.37;93.38
39681;BME280;26327;42.550;23.120;2023-02-13T18:40:01;94260.03;;;-0.76;91.96
39681;BME280;26327;42.550;23.120;2023-02-13T18:42:26;94238.31;;;-1.01;91.10
39681;BME280;26327;42.550;23.120;2023-02-13T18:44:52;94295.03;;;-0.78;92.79
39681;BME280;26327;42.550;23.120;2023-02-13T18:47:17;94213.75;;;-1.19;93.26
39681;BME280;26327;42.550;23.120;2023-02-13T18:49:43;94205.28;;;-1.37;92.35
39681;BME280;26327;42.550;23.120;2023-02-13T18:52:10;94168.84;;;-1.56;92.96
39681;BME280;26327;42.550;23.120;2023-02-13T18:54:36;94187.38;;;-1.35;91.43
39681;BME280;26327;42.550;23.120;2023-02-13T18:57:01;94125.78;;;-1.78;91.83
39681;BME280;26327;42.550;23.120;2023-02-13T18:59:27;94299.00;;;-1.07;93.16
39681;BME280;26327;42.550;23.120;2023-02-13T19:02:02;94291.19;;;-1.04;95.07
39681;BME280;26327;42.550;23.120;2023-02-13T19:04:28;94274.25;;;-1.05;94.11
39681;BME280;26327;42.550;23.120;2023-02-13T19:06:53;94223.50;;;-1.44;93.47
39681;BME280;26327;42.550;23.120;2023-02-13T19:09:18;94205.75;;;-1.63;93.52
39681;BME280;26327;42.550;23.120;2023-02-13T19:11:44;94258.34;;;-1.45;93.99
39681;BME280;26327;42.550;23.120;2023-02-13T19:14:12;94160.38;;;-2.26;94.43
39681;BME280;26327;42.550;23.120;2023-02-13T19:16:38;94255.34;;;-1.53;95.18
39681;BME280;26327;42.550;23.120;2023-02-13T19:19:05;94197.28;;;-1.81;93.83
39681;BME280;26327;42.550;23.120;2023-02-13T19:21:33;94280.28;;;-1.41;93.69
39681;BME280;26327;42.550;23.120;2023-02-13T19:24:01;94304.13;;;-1.24;92.86
39681;BME280;26327;42.550;23.120;2023-02-13T19:26:26;94181.41;;;-2.41;95.34
39681;BME280;26327;42.550;23.120;2023-02-13T19:28:52;94303.41;;;-1.63;96.14
39681;BME280;26327;42.550;23.120;2023-02-13T19:31:23;94237.56;;;-2.63;98.76
39681;BME280;26327;42.550;23.120;2023-02-13T19:33:50;94221.53;;;-2.46;99.34
39681;BME280;26327;42.550;23.120;2023-02-13T19:36:18;94309.09;;;-1.58;97.64
39681;BME280;26327;42.550;23.120;2023-02-13T19:38:44;94223.38;;;-1.95;95.93
39681;BME280;26327;42.550;23.120;2023-02-13T19:41:15;94299.50;;;-1.70;94.74
39681;BME280;26327;42.550;23.120;2023-02-13T19:43:42;94305.34;;;-1.68;94.55
39681;BME280;26327;42.550;23.120;2023-02-13T19:46:14;94282.31;;;-2.02;95.86
39681;BME280;26327;42.550;23.120;2023-02-13T19:48:39;94293.41;;;-1.84;96.58
39681;BME280;26327;42.550;23.120;2023-02-13T19:51:10;94198.34;;;-2.40;95.87
39681;BME280;26327;42.550;23.120;2023-02-13T19:53:35;94303.59;;;-1.84;95.74
39681;BME280;26327;42.550;23.120;2023-02-13T19:56:02;94286.34;;;-2.34;97.73
39681;BME280;26327;42.550;23.120;2023-02-13T19:58:28;94198.91;;;-2.52;98.82
39681;BME280;26327;42.550;23.120;2023-02-13T20:00:53;94217.72;;;-2.37;97.07
39681;BME280;26327;42.550;23.120;2023-02-13T20:03:19;94209.91;;;-2.70;97.10
39681;BME280;26327;42.550;23.120;2023-02-13T20:05:45;94289.91;;;-2.19;97.42
39681;BME280;26327;42.550;23.120;2023-02-13T20:08:10;94193.63;;;-2.66;98.32
39681;BME280;26327;42.550;23.120;2023-02-13T20:10:36;94296.84;;;-2.04;98.49
39681;BME280;26327;42.550;23.120;2023-02-13T20:13:02;94246.72;;;-2.59;98.91
39681;BME280;26327;42.550;23.120;2023-02-13T20:15:29;94195.91;;;-2.79;99.49
39681;BME280;26327;42.550;23.120;2023-02-13T20:17:54;94281.50;;;-2.03;97.75
39681;BME280;26327;42.550;23.120;2023-02-13T20:20:20;94263.34;;;-2.14;96.35
39681;BME280;26327;42.550;23.120;2023-02-13T20:22:46;94190.69;;;-2.76;96.64
39681;BME280;26327;42.550;23.120;2023-02-13T20:25:13;94288.25;;;-2.39;98.70
39681;BME280;26327;42.550;23.120;2023-02-13T20:27:39;94107.50;;;-3.11;97.73
39681;BME280;26327;42.550;23.120;2023-02-13T20:30:10;94146.38;;;-2.91;96.22
39681;BME280;26327;42.550;23.120;2023-02-13T20:32:36;94203.25;;;-2.54;96.99
39681;BME280;26327;42.550;23.120;2023-02-13T20:35:03;94199.19;;;-2.58;96.26
39681;BME280;26327;42.550;23.120;2023-02-13T20:37:29;94271.19;;;-2.18;97.56
39681;BME280;26327;42.550;23.120;2023-02-13T20:39:54;94190.16;;;-2.84;98.42
39681;BME280;26327;42.550;23.120;2023-02-13T20:42:20;94228.75;;;-2.74;99.01
39681;BME280;26327;42.550;23.120;2023-02-13T20:44:45;94266.22;;;-2.40;98.14
39681;BME280;26327;42.550;23.120;2023-02-13T20:47:11;94277.03;;;-2.16;97.99
39681;BME280;26327;42.550;23.120;2023-02-13T20:49:36;94152.59;;;-2.77;95.99
39681;BME280;26327;42.550;23.120;2023-02-13T20:52:02;94159.44;;;-2.98;96.75
39681;BME280;26327;42.550;23.120;2023-02-13T20:54:29;94160.47;;;-2.65;96.47
39681;BME280;26327;42.550;23.120;2023-02-13T20:56:55;94253.19;;;-2.33;96.38
39681;BME280;26327;42.550;23.120;2023-02-13T20:59:20;94189.88;;;-2.40;95.13
39681;BME280;26327;42.550;23.120;2023-02-13T21:01:46;94247.09;;;-2.11;93.63
39681;BME280;26327;42.550;23.120;2023-02-13T21:04:11;94062.94;;;-3.76;96.54